Time;durP1;ratioP1;P1;durP2;ratioP2;P2;SDS_P1;SDS_P2;PMS_P1;PMS_P2;Temp;Humidity;BMP_temperature;BMP_pressure;BME280_temperature;BME280_humidity;BME280_pressure;Samples;Min_cycle;Max_cycle;Signal;HPM_P1;HPM_P2
2023/01/25 00:01:54;;;;;;;28.10;6.13;;;;;;;22.67;54.46;101402.81;7310628;19;129091;-39
2023/01/25 00:04:21;;;;;;;51.60;8.77;;;;;;;22.62;54.21;101394.44;7309754;19;130042;-39
2023/01/25 00:06:46;;;;;;;;;;;;;;;22.55;54.73;101398.38;7311586;19;130087;-38
2023/01/25 00:09:12;;;;;;;25.85;5.55;;;;;;;22.52;54.13;101398.56;7313747;19;128861;-38
2023/01/25 00:11:37;;;;;;;25.25;5.95;;;;;;;22.44;54.98;101401.72;7311487;19;129205;-39
2023/01/25 00:14:04;;;;;;;26.33;6.30;;;;;;;22.40;55.12;101396.75;7311343;19;130009;-39
2023/01/25 00:16:29;;;;;;;43.92;7.30;;;;;;;22.38;55.29;101396.03;7309638;19;130411;-37
2023/01/25 00:18:55;;;;;;;14.30;5.27;;;;;;;22.29;55.01;101391.38;7312694;19;129909;-40
2023/01/25 00:21:23;;;;;;;75.60;10.18;;;;;;;22.26;55.65;101396.84;7311095;19;131326;-38
2023/01/25 00:23:49;;;;;;;19.60;5.55;;;;;;;22.21;55.35;101393.66;7311221;19;130019;-39
2023/01/25 00:26:14;;;;;;;31.40;6.07;;;;;;;22.16;55.66;101400.97;7311863;19;129330;-37
2023/01/25 00:28:40;;;;;;;38.27;7.13;;;;;;;22.13;55.61;101406.44;7312014;19;129060;-37
2023/01/25 00:31:08;;;;;;;7.17;4.50;;;;;;;22.08;56.34;101400.66;7310086;19;129420;-39
2023/01/25 00:33:36;;;;;;;38.53;7.28;;;;;;;22.05;56.00;101391.19;7309512;19;129461;-38
2023/01/25 00:36:27;;;;;;;33.78;6.55;;;;;;;21.95;55.89;101388.31;7310272;19;129516;-38
2023/01/25 00:38:53;;;;;;;44.55;7.28;;;;;;;21.98;56.59;101389.06;7312421;19;128877;-37
2023/01/25 00:41:19;;;;;;;31.98;6.80;;;;;;;21.95;56.43;101398.81;7314041;19;129719;-38
2023/01/25 00:43:45;;;;;;;29.90;6.00;;;;;;;21.84;56.20;101382.94;7310867;19;129559;-38
2023/01/25 00:46:15;;;;;;;22.83;5.35;;;;;;;21.88;56.87;101396.69;7309455;19;130383;-38
2023/01/25 00:48:41;;;;;;;30.67;6.10;;;;;;;21.86;56.30;101394.19;7312574;19;129762;-38
2023/01/25 00:51:06;;;;;;;12.97;4.73;;;;;;;21.73;57.09;101374.06;7311464;19;129296;-38
2023/01/25 00:53:31;;;;;;;30.97;6.40;;;;;;;21.82;56.67;101389.22;7310211;19;129270;-38
2023/01/25 00:55:57;;;;;;;23.40;5.20;;;;;;;21.80;57.02;101394.53;7310953;19;129225;-40
2023/01/25 00:58:22;;;;;;;39.93;7.43;;;;;;;21.77;56.60;101388.66;7312051;19;130005;-38
2023/01/25 01:00:47;;;;;;;19.20;5.67;;;;;;;21.76;56.67;101382.59;7311700;19;129153;-39
2023/01/25 01:03:13;;;;;;;31.43;5.80;;;;;;;21.76;56.59;101387.84;7311754;19;129515;-37
2023/01/25 01:05:38;;;;;;;17.10;4.63;;;;;;;21.62;56.75;101366.88;7311249;19;129352;-39
2023/01/25 01:08:03;;;;;;;33.53;6.57;;;;;;;21.71;57.25;101384.63;7305985;19;129566;-38
2023/01/25 01:10:29;;;;;;;25.73;5.63;;;;;;;21.71;56.80;101374.16;7310167;19;128939;-40
2023/01/25 01:12:54;;;;;;;24.93;6.23;;;;;;;21.67;57.47;101375.28;7312055;19;129317;-40
2023/01/25 01:15:20;;;;;;;64.27;10.57;;;;;;;21.66;57.48;101378.00;7306809;19;129362;-37
2023/01/25 01:17:45;;;;;;;34.50;7.20;;;;;;;21.63;57.52;101375.59;7311177;19;128825;-38
2023/01/25 01:20:11;;;;;;;37.67;6.77;;;;;;;21.63;57.42;101368.59;7311073;19;130131;-39
2023/01/25 01:22:36;;;;;;;24.80;6.13;;;;;;;21.61;57.40;101370.44;7311863;19;129321;-38
2023/01/25 01:25:02;;;;;;;40.67;7.07;;;;;;;21.61;57.75;101364.38;7306475;19;130002;-39
2023/01/25 01:27:27;;;;;;;36.22;6.55;;;;;;;21.61;57.32;101361.75;7310856;19;129092;-38
2023/01/25 01:29:52;;;;;;;54.87;8.37;;;;;;;21.57;57.59;101350.63;7309827;19;129256;-40
2023/01/25 01:32:18;;;;;;;23.35;5.15;;;;;;;21.55;57.89;101352.50;7309843;19;129125;-39
2023/01/25 01:34:43;;;;;;;41.33;6.87;;;;;;;21.54;57.87;101342.97;7307932;19;129686;-38
2023/01/25 01:37:08;;;;;;;26.77;5.95;;;;;;;21.55;57.26;101341.22;7308544;19;130751;-39
2023/01/25 01:39:34;;;;;;;39.95;7.32;;;;;;;21.52;57.63;101342.22;7310693;19;129318;-41
2023/01/25 01:41:59;;;;;;;24.00;5.40;;;;;;;21.53;57.54;101337.84;7310309;19;129125;-39
2023/01/25 01:44:43;;;;;;;41.13;7.20;;;;;;;21.54;59.01;101329.03;7309844;19;129983;-39
2023/01/25 01:47:16;;;;;;;34.20;6.30;;;;;;;21.46;58.40;101316.47;7307600;19;129528;-37
2023/01/25 01:49:51;;;;;;;24.70;6.07;;;;;;;21.53;57.64;101324.75;7309760;19;129219;-38
2023/01/25 01:52:23;;;;;;;22.48;5.60;;;;;;;21.54;58.02;101324.66;7309595;19;129974;-39
2023/01/25 01:54:55;;;;;;;30.20;6.18;;;;;;;21.56;58.01;101317.56;7309018;19;129504;-40
2023/01/25 01:57:25;;;;;;;31.90;6.10;;;;;;;21.49;57.49;101304.94;7304733;19;130295;-41
2023/01/25 02:00:06;;;;;;;40.95;6.07;;;;;;;21.76;56.72;101318.88;7310479;19;128944;-39
2023/01/25 02:02:31;;;;;;;40.53;6.90;;;;;;;21.83;56.74;101307.94;7305871;19;131357;-37
2023/01/25 02:05:00;;;;;;;30.15;5.65;;;;;;;21.98;56.23;101306.94;7307331;19;129512;-41
2023/01/25 02:07:32;;;;;;;23.25;5.60;;;;;;;22.18;55.21;101310.03;7305519;19;129493;-39
2023/01/25 02:09:59;;;;;;;32.38;6.20;;;;;;;22.31;55.24;101297.78;7309182;19;129017;-39
2023/01/25 02:12:25;;;;;;;33.70;6.35;;;;;;;22.49;54.04;101307.03;7308630;19;129385;-38
2023/01/25 02:14:51;;;;;;;38.53;7.18;;;;;;;22.60;53.98;101288.81;7307915;19;130063;-38
2023/01/25 02:17:25;;;;;;;36.28;6.30;;;;;;;22.74;53.78;101296.59;7305769;19;129106;-40
2023/01/25 02:19:59;;;;;;;28.55;6.05;;;;;;;22.76;53.14;101292.91;7309503;19;129218;-39
2023/01/25 02:22:35;;;;;;;34.08;6.10;;;;;;;22.66;53.94;101285.81;7307116;19;130014;-39
2023/01/25 02:25:04;;;;;;;33.13;5.70;;;;;;;22.57;53.84;101286.41;7307088;19;129476;-37
2023/01/25 02:27:30;;;;;;;47.33;7.82;;;;;;;22.50;53.85;101275.47;7305485;19;129612;-39
2023/01/25 02:29:57;;;;;;;36.28;6.22;;;;;;;22.46;55.00;101273.19;7308854;19;129258;-39
2023/01/25 02:32:22;;;;;;;33.97;5.70;;;;;;;22.41;54.53;101275.28;7305971;19;130184;-38
2023/01/25 02:34:47;;;;;;;37.20;6.60;;;;;;;22.33;55.19;101277.59;7306467;19;129568;-39
2023/01/25 02:37:14;;;;;;;63.60;8.30;;;;;;;22.14;55.21;101253.53;7306373;19;129675;-38
2023/01/25 02:39:41;;;;;;;17.00;4.57;;;;;;;22.20;55.24;101267.06;7307931;19;129056;-39
2023/01/25 02:42:06;;;;;;;14.60;4.60;;;;;;;22.15;55.53;101265.72;7308601;19;129452;-38
2023/01/25 02:44:32;;;;;;;53.40;7.80;;;;;;;22.09;55.99;101261.72;7301546;19;130268;-40
2023/01/25 02:46:58;;;;;;;26.67;5.22;;;;;;;21.93;55.60;101251.41;7308153;19;129896;-37
2023/01/25 02:49:23;;;;;;;27.77;5.47;;;;;;;21.98;55.54;101258.13;7307642;19;130343;-39
2023/01/25 02:51:51;;;;;;;20.07;4.73;;;;;;;21.91;55.53;101255.91;7305817;19;130323;-40
2023/01/25 02:54:19;;;;;;;31.48;5.63;;;;;;;21.88;56.53;101255.28;7303250;19;129401;-40
2023/01/25 02:56:45;;;;;;;23.75;5.15;;;;;;;21.83;56.12;101258.19;7308229;19;129350;-38
2023/01/25 02:59:12;;;;;;;25.73;5.50;;;;;;;21.78;56.46;101255.03;7301596;19;130044;-36
2023/01/25 03:01:39;;;;;;;6.70;3.50;;;;;;;21.78;56.80;101256.84;7306010;19;129841;-41
2023/01/25 03:04:06;;;;;;;28.00;5.03;;;;;;;21.76;56.52;101258.69;7303942;19;129475;-39
2023/01/25 03:06:32;;;;;;;28.85;5.47;;;;;;;21.70;56.50;101249.44;7307122;19;129859;-39
2023/01/25 03:08:58;;;;;;;33.28;5.68;;;;;;;21.69;57.16;101260.00;7313101;19;129410;-38
2023/01/25 03:11:23;;;;;;;31.27;5.80;;;;;;;21.64;57.52;101257.69;7313065;19;130084;-38
2023/01/25 03:13:49;;;;;;;30.92;6.10;;;;;;;21.61;57.40;101255.28;7309672;19;130649;-38
2023/01/25 03:16:15;;;;;;;23.80;4.87;;;;;;;21.60;57.42;101245.72;7314792;19;129394;-37
2023/01/25 03:18:40;;;;;;;45.93;7.33;;;;;;;21.57;57.21;101251.16;7313933;19;129909;-40
2023/01/25 03:21:15;;;;;;;20.42;4.78;;;;;;;21.56;57.84;101249.50;7312871;19;129062;-38
2023/01/25 03:23:42;;;;;;;78.78;10.07;;;;;;;21.54;57.10;101248.75;7310922;19;129195;-37
2023/01/25 03:26:11;;;;;;;27.17;5.78;;;;;;;21.51;57.11;101246.34;7313257;19;129279;-39
2023/01/25 03:28:38;;;;;;;25.50;5.45;;;;;;;21.50;57.27;101238.59;7315152;19;129088;-36
2023/01/25 03:31:04;;;;;;;22.13;5.05;;;;;;;21.52;57.16;101242.78;7307513;19;129382;-39
2023/01/25 03:33:29;;;;;;;28.47;5.67;;;;;;;21.47;57.17;101247.47;7312211;19;130987;-40
2023/01/25 03:35:55;;;;;;;35.08;6.18;;;;;;;21.44;57.35;101239.81;7312598;19;129789;-39
2023/01/25 03:38:21;;;;;;;26.80;5.63;;;;;;;21.44;57.36;101244.22;7313227;19;130617;-41
2023/01/25 03:40:47;;;;;;;22.87;5.03;;;;;;;21.50;57.34;101255.13;7315095;19;129850;-38
2023/01/25 03:43:12;;;;;;;33.37;5.97;;;;;;;21.54;57.27;101238.28;7314365;19;129445;-41
2023/01/25 03:45:38;;;;;;;34.72;6.47;;;;;;;21.68;56.64;101238.22;7311085;19;128973;-37
2023/01/25 03:48:03;;;;;;;20.10;4.97;;;;;;;21.77;56.35;101240.28;7314714;19;129562;-39
2023/01/25 03:50:29;;;;;;;23.67;5.17;;;;;;;22.00;56.13;101232.69;7313462;19;129575;-39
2023/01/25 03:53:00;;;;;;;41.45;6.55;;;;;;;22.17;55.51;101235.84;7313424;19;129775;-39
2023/01/25 03:55:26;;;;;;;40.10;6.78;;;;;;;22.35;54.71;101229.34;7309630;19;129552;-39
2023/01/25 03:57:51;;;;;;;17.02;4.32;;;;;;;22.42;54.51;101224.53;7313692;19;129802;-40
2023/01/25 04:00:18;;;;;;;31.45;5.90;;;;;;;22.70;53.45;101234.81;7313287;19;129659;-39
2023/01/25 04:02:44;;;;;;;31.00;5.63;;;;;;;22.68;53.79;101237.53;7313963;19;130417;-39
2023/01/25 04:05:10;;;;;;;24.80;5.00;;;;;;;22.66;54.29;101236.00;7313340;19;129480;-38
2023/01/25 04:07:35;;;;;;;25.02;5.03;;;;;;;22.58;53.85;101225.16;7311450;19;129380;-39
2023/01/25 04:10:00;;;;;;;23.15;5.05;;;;;;;22.40;54.57;101205.44;7313962;19;130262;-39
2023/01/25 04:12:26;;;;;;;57.10;7.53;;;;;;;22.46;54.48;101226.00;7313251;19;131050;-37
2023/01/25 04:14:51;;;;;;;27.17;5.53;;;;;;;22.39;54.60;101214.25;7311725;19;129328;-38
2023/01/25 04:17:16;;;;;;;29.83;5.57;;;;;;;22.32;54.67;101221.72;7310370;19;129211;-37
2023/01/25 04:19:42;;;;;;;29.98;5.32;;;;;;;22.24;55.28;101210.06;7308661;19;129517;-39
2023/01/25 04:22:08;;;;;;;38.05;5.63;;;;;;;22.18;54.91;101226.22;7313503;19;131482;-38
2023/01/25 04:24:33;;;;;;;21.10;4.97;;;;;;;22.05;55.73;101215.69;7310646;19;129423;-38
2023/01/25 04:26:58;;;;;;;35.30;6.18;;;;;;;22.07;55.57;101218.22;7311159;19;129232;-38
2023/01/25 04:29:24;;;;;;;26.48;5.15;;;;;;;21.88;55.33;101203.75;7312166;19;129515;-39
2023/01/25 04:31:49;;;;;;;70.40;8.70;;;;;;;21.91;56.14;101221.84;7310542;19;129838;-37
2023/01/25 04:34:14;;;;;;;19.92;4.18;;;;;;;21.92;55.59;101223.56;7310441;19;129617;-39
2023/01/25 04:36:40;;;;;;;27.38;5.18;;;;;;;22.08;55.20;101227.78;7310618;19;129552;-37
2023/01/25 04:39:05;;;;;;;26.63;5.53;;;;;;;22.59;54.28;101226.88;7309589;19;129458;-40
2023/01/25 04:41:30;;;;;;;29.70;5.57;;;;;;;23.12;52.21;101216.88;7313580;19;129237;-38
2023/01/25 04:43:56;;;;;;;17.48;4.45;;;;;;;23.57;51.43;101217.97;7309428;19;129970;-39
2023/01/25 04:46:21;;;;;;;28.00;5.07;;;;;;;23.88;50.07;101200.78;7310428;19;129078;-40
2023/01/25 04:48:46;;;;;;;55.63;7.55;;;;;;;24.19;49.44;101211.50;7311598;19;130098;-39
2023/01/25 04:51:13;;;;;;;27.42;5.18;;;;;;;24.34;48.91;101210.34;7311696;19;130339;-38
2023/01/25 04:53:38;;;;;;;17.50;4.43;;;;;;;24.46;48.46;101209.38;7310140;19;131336;-39
2023/01/25 04:56:04;;;;;;;17.83;4.47;;;;;;;24.53;48.69;101207.09;7309909;19;129778;-41
2023/01/25 04:58:29;;;;;;;41.57;6.10;;;;;;;24.65;48.29;101213.19;7311519;19;129520;-39
2023/01/25 05:00:59;;;;;;;29.88;5.25;;;;;;;24.50;48.58;101196.81;7310600;19;129921;-39
2023/01/25 05:03:24;;;;;;;34.72;5.03;;;;;;;24.66;48.03;101205.19;7308742;19;129420;-39
2023/01/25 05:05:50;;;;;;;32.13;5.40;;;;;;;24.69;48.32;101202.34;7309284;19;129473;-39
2023/01/25 05:08:15;;;;;;;39.80;6.05;;;;;;;24.70;48.07;101208.44;7309409;19;130203;-38
2023/01/25 05:10:40;;;;;;;22.33;4.23;;;;;;;24.62;48.53;101187.13;7310505;19;129525;-36
2023/01/25 05:13:06;;;;;;;27.50;4.85;;;;;;;24.75;47.91;101208.91;7309653;19;129253;-39
2023/01/25 05:15:31;;;;;;;40.13;5.95;;;;;;;24.86;48.29;101206.28;7305276;19;129527;-39
2023/01/25 05:17:56;;;;;;;36.53;5.33;;;;;;;24.85;47.77;101205.44;7308632;19;130074;-39
2023/01/25 05:20:22;;;;;;;31.20;5.75;;;;;;;24.83;47.99;101185.47;7310994;19;130071;-38
2023/01/25 05:22:47;;;;;;;17.80;4.60;;;;;;;24.93;47.35;101208.28;7307813;19;129279;-36
2023/01/25 05:27:56;;;;;;;60.03;7.72;;;;;;;25.08;47.39;101193.06;7308796;19;130288;-35
2023/01/25 05:30:21;;;;;;;37.10;5.93;;;;;;;25.02;47.32;101190.94;7306968;19;130124;-39
2023/01/25 05:32:49;;;;;;;27.13;5.07;;;;;;;25.09;47.48;101192.94;7307992;19;129289;-37
2023/01/25 05:35:14;;;;;;;12.02;3.75;;;;;;;25.04;47.25;101186.41;7303252;19;129083;-38
2023/01/25 05:37:39;;;;;;;41.47;5.40;;;;;;;24.92;47.63;101184.75;7307044;19;130016;-37
2023/01/25 05:40:06;;;;;;;15.97;4.10;;;;;;;24.72;47.83;101177.59;7308112;19;129401;-39
2023/01/25 05:42:31;;;;;;;47.47;7.00;;;;;;;24.60;48.16;101194.31;7307399;19;130912;-39
2023/01/25 05:44:56;;;;;;;49.30;7.63;;;;;;;24.39;48.82;101176.59;7299007;19;130101;-39
2023/01/25 05:47:22;;;;;;;56.87;7.63;;;;;;;24.21;49.60;101187.72;7303082;19;129951;-38
2023/01/25 05:49:47;;;;;;;42.17;6.60;;;;;;;24.02;49.88;101177.78;7304496;19;129707;-39
2023/01/25 05:52:16;;;;;;;56.15;7.57;;;;;;;23.94;50.32;101174.88;7296598;19;130714;-39
2023/01/25 05:54:42;;;;;;;33.03;5.60;;;;;;;23.91;50.43;101179.53;7300149;19;130078;-37
2023/01/25 05:57:07;;;;;;;39.47;5.50;;;;;;;23.84;50.35;101168.66;7308327;19;129974;-39
2023/01/25 05:59:32;;;;;;;22.77;4.45;;;;;;;23.88;50.39;101175.31;7307896;19;129642;-37
2023/01/25 06:01:58;;;;;;;29.57;5.50;;;;;;;23.90;50.27;101168.16;7310901;19;129084;-38
2023/01/25 06:04:23;;;;;;;25.63;4.78;;;;;;;23.94;50.46;101172.25;7304073;19;130547;-39
2023/01/25 06:06:48;;;;;;;36.13;5.63;;;;;;;24.00;50.07;101169.19;7307932;19;129518;-39
2023/01/25 06:09:14;;;;;;;57.57;8.17;;;;;;;24.01;49.64;101160.38;7306275;19;129502;-39
2023/01/25 06:11:43;;;;;;;19.80;4.27;;;;;;;24.03;50.21;101166.31;7309013;19;129448;-38
2023/01/25 06:14:09;;;;;;;31.90;5.15;;;;;;;24.09;49.52;101165.88;7307624;19;129476;-40
2023/01/25 06:16:34;;;;;;;65.33;9.13;;;;;;;24.05;50.14;101163.56;7303050;19;129797;-40
2023/01/25 06:18:59;;;;;;;18.23;4.30;;;;;;;24.00;49.75;101163.91;7308938;19;130280;-38
2023/01/25 06:21:25;;;;;;;28.03;4.73;;;;;;;23.86;50.70;101161.50;7306326;19;129570;-38
2023/01/25 06:23:50;;;;;;;41.73;6.50;;;;;;;23.74;50.00;101151.91;7306284;19;130169;-39
2023/01/25 06:26:15;;;;;;;36.30;5.75;;;;;;;23.79;50.16;101170.78;7307882;19;130140;-37
2023/01/25 06:28:41;;;;;;;10.93;3.30;;;;;;;23.81;50.59;101166.25;7310620;19;130280;-39
2023/01/25 06:31:13;;;;;;;33.70;5.23;;;;;;;23.79;50.82;101169.94;7307759;19;130859;-38
2023/01/25 06:33:40;;;;;;;35.97;5.32;;;;;;;23.83;50.21;101164.31;7304904;19;129011;-39
2023/01/25 06:36:10;;;;;;;38.42;5.78;;;;;;;23.88;50.00;101162.19;7305603;19;129095;-39
2023/01/25 06:38:36;;;;;;;18.27;4.05;;;;;;;23.98;49.72;101171.06;7309211;19;130033;-40
2023/01/25 06:41:03;;;;;;;35.33;6.27;;;;;;;24.02;49.66;101167.28;7303365;19;129200;-40
2023/01/25 06:43:31;;;;;;;28.75;5.03;;;;;;;23.97;50.42;101158.88;7309456;19;129490;-38
2023/01/25 06:46:04;;;;;;;40.90;6.45;;;;;;;23.90;50.03;101162.09;7309577;19;130450;-39
2023/01/25 06:48:30;;;;;;;33.28;5.93;;;;;;;23.81;50.96;101161.00;7316612;19;130267;-39
2023/01/25 06:50:58;;;;;;;69.70;8.70;;;;;;;23.69;50.47;101158.44;7306277;19;129556;-37
2023/01/25 06:53:28;;;;;;;34.78;5.45;;;;;;;23.66;51.37;101159.53;7296351;19;129565;-39
2023/01/25 06:55:57;;;;;;;41.00;5.95;;;;;;;23.69;50.65;101161.91;7304891;19;130118;-37
2023/01/25 06:58:22;;;;;;;51.58;7.35;;;;;;;23.68;50.55;101157.63;7309587;19;129614;-41
2023/01/25 07:00:47;;;;;;;72.80;10.13;;;;;;;23.76;51.06;101155.25;7302021;19;129748;-38
2023/01/25 07:03:13;;;;;;;10.93;3.63;;;;;;;23.81;50.73;101158.38;7306420;19;130865;-39
2023/01/25 07:05:38;;;;;;;38.60;6.00;;;;;;;23.83;50.98;101147.75;7309248;19;129612;-38
2023/01/25 07:08:04;;;;;;;29.75;5.28;;;;;;;23.91;50.08;101142.75;7309194;19;130737;-38
2023/01/25 07:10:29;;;;;;;24.83;4.60;;;;;;;24.03;50.09;101140.03;7314190;19;130298;-37
2023/01/25 07:12:54;;;;;;;33.27;5.63;;;;;;;24.01;49.68;101139.34;7304623;19;129925;-39
2023/01/25 07:15:20;;;;;;;66.60;9.00;;;;;;;24.10;49.45;101138.63;7310545;19;129799;-39
2023/01/25 07:17:45;;;;;;;32.10;5.23;;;;;;;24.04;50.12;101139.09;7309898;19;129054;-34
2023/01/25 07:20:11;;;;;;;33.43;6.00;;;;;;;23.85;50.58;101137.97;7311599;19;130215;-39
2023/01/25 07:22:36;;;;;;;78.28;9.95;;;;;;;23.80;50.28;101140.94;7304445;19;129967;-38
2023/01/25 07:25:02;;;;;;;25.80;4.80;;;;;;;23.77;50.26;101130.66;7308843;19;129344;-35
2023/01/25 07:27:28;;;;;;;65.90;8.43;;;;;;;23.75;50.40;101135.19;7303904;19;129540;-37
2023/01/25 07:29:53;;;;;;;38.77;6.70;;;;;;;23.81;50.77;101132.13;7311822;19;129547;-36
2023/01/25 07:32:18;;;;;;;44.03;7.17;;;;;;;23.83;50.85;101126.75;7301517;19;130719;-39
2023/01/25 07:34:44;;;;;;;42.33;6.23;;;;;;;23.80;50.57;101113.84;7309580;19;130416;-37
2023/01/25 07:37:09;;;;;;;21.80;4.63;;;;;;;23.88;50.75;101117.53;7308353;19;129222;-38
2023/01/25 07:39:35;;;;;;;23.77;4.60;;;;;;;23.93;50.06;101106.69;7313244;19;128974;-39
2023/01/25 07:42:00;;;;;;;37.30;5.97;;;;;;;23.98;50.29;101113.28;7313120;19;129897;-40
2023/01/25 07:44:26;;;;;;;32.27;5.70;;;;;;;24.04;49.57;101107.56;7300424;19;130905;-38
2023/01/25 07:46:52;;;;;;;58.03;8.13;;;;;;;24.08;49.96;101103.72;7309108;19;129655;-39
2023/01/25 07:49:18;;;;;;;42.67;6.55;;;;;;;23.81;47.49;101105.84;7280060;19;130217;-39
2023/01/25 07:51:43;;;;;;;40.60;6.87;;;;;;;23.49;47.75;101099.56;7310891;19;129629;-38
2023/01/25 07:54:10;;;;;;;25.58;5.55;;;;;;;23.33;47.27;101098.19;7308797;19;129653;-40
2023/01/25 07:56:37;;;;;;;46.67;7.40;;;;;;;23.34;46.56;101098.09;7308541;19;129765;-39
2023/01/25 07:59:03;;;;;;;29.05;6.22;;;;;;;23.34;46.31;101105.16;7310914;19;129085;-39
2023/01/25 08:01:31;;;;;;;42.42;7.40;;;;;;;23.43;45.86;101089.53;7312390;19;129158;-39
2023/01/25 08:03:57;;;;;;;32.42;6.20;;;;;;;23.49;45.24;101086.44;7310251;19;129522;-38
2023/01/25 08:06:34;;;;;;;35.53;6.83;;;;;;;23.52;44.96;101083.56;7310718;19;129360;-36
2023/01/25 08:09:03;;;;;;;32.63;6.32;;;;;;;23.58;45.62;101088.38;7303071;19;129697;-38
2023/01/25 08:11:30;;;;;;;39.63;6.25;;;;;;;23.64;44.82;101082.66;7309456;19;129018;-40
2023/01/25 08:13:55;;;;;;;63.47;8.45;;;;;;;23.69;44.67;101079.66;7305057;19;130264;-39
2023/01/25 08:16:24;;;;;;;32.27;6.70;;;;;;;23.81;44.67;101076.97;7307548;19;129595;-37
2023/01/25 08:18:54;;;;;;;45.78;7.32;;;;;;;23.88;43.63;101086.00;7307896;19;129395;-39
2023/01/25 08:21:23;;;;;;;30.45;6.32;;;;;;;23.93;43.65;101083.06;7308834;19;129731;-37
2023/01/25 08:23:48;;;;;;;67.38;9.15;;;;;;;23.95;43.88;101081.13;7307231;19;129420;-38
2023/01/25 08:26:15;;;;;;;52.90;8.17;;;;;;;23.87;43.92;101083.50;7305687;19;129878;-37
2023/01/25 08:28:41;;;;;;;51.67;8.05;;;;;;;23.82;43.87;101075.16;7300787;19;129203;-38
2023/01/25 08:31:12;;;;;;;45.93;7.50;;;;;;;23.86;44.21;101087.94;7299630;19;129899;-38
2023/01/25 08:33:39;;;;;;;49.17;7.85;;;;;;;23.89;43.03;101082.44;7299021;19;130307;-36
2023/01/25 08:36:06;;;;;;;79.03;10.30;;;;;;;23.97;42.91;101089.72;7299650;19;131089;-38
2023/01/25 08:38:32;;;;;;;42.72;7.55;;;;;;;24.03;43.00;101084.88;7299326;19;130307;-40
2023/01/25 08:41:07;;;;;;;60.90;8.93;;;;;;;24.11;42.40;101085.09;7301782;19;130078;-38
2023/01/25 08:43:33;;;;;;;55.80;8.95;;;;;;;24.15;42.32;101078.66;7300840;19;129582;-36
2023/01/25 08:45:58;;;;;;;72.73;9.60;;;;;;;24.25;42.08;101082.25;7296588;19;131191;-37
2023/01/25 08:48:23;;;;;;;44.70;7.75;;;;;;;24.29;42.61;101082.84;7302496;19;130628;-40
2023/01/25 08:50:49;;;;;;;56.60;9.63;;;;;;;24.38;41.99;101080.31;7300386;19;130294;-36
2023/01/25 08:53:14;;;;;;;42.03;7.97;;;;;;;24.45;41.74;101075.41;7301507;19;130827;-37
2023/01/25 08:55:41;;;;;;;49.00;8.10;;;;;;;24.48;41.29;101070.72;7300246;19;130695;-38
2023/01/25 08:58:09;;;;;;;55.70;8.27;;;;;;;24.45;41.26;101065.72;7301289;19;130431;-38
2023/01/25 09:00:37;;;;;;;45.38;7.78;;;;;;;24.36;41.45;101068.25;7301531;19;130264;-40
2023/01/25 09:03:02;;;;;;;59.08;8.25;;;;;;;24.24;41.80;101070.06;7299508;19;130429;-34
2023/01/25 09:05:28;;;;;;;97.03;12.90;;;;;;;24.23;41.84;101068.38;7297843;19;130595;-38
2023/01/25 09:07:53;;;;;;;49.33;7.72;;;;;;;24.09;42.58;101070.41;7301267;19;131537;-39
2023/01/25 09:10:18;;;;;;;58.10;8.77;;;;;;;23.97;43.22;101059.03;7300475;19;130352;-38
2023/01/25 09:12:44;;;;;;;38.30;7.50;;;;;;;23.98;42.60;101068.63;7300670;19;129577;-35
2023/01/25 09:15:09;;;;;;;46.00;7.37;;;;;;;24.01;42.07;101060.53;7298183;19;130454;-38
2023/01/25 09:17:37;;;;;;;42.50;7.53;;;;;;;23.95;42.34;101041.72;7299361;19;129531;-37
2023/01/25 09:20:06;;;;;;;64.53;9.23;;;;;;;24.09;42.21;101060.75;7302584;19;130176;-40
2023/01/25 09:22:32;;;;;;;61.28;9.38;;;;;;;24.23;42.16;101049.13;7300458;19;130372;-38
2023/01/25 09:24:57;;;;;;;54.00;8.43;;;;;;;24.27;41.76;101042.69;7299493;19;130223;-40
2023/01/25 09:27:23;;;;;;;49.57;8.43;;;;;;;24.35;41.53;101033.25;7297832;19;130302;-40
2023/01/25 09:29:48;;;;;;;47.13;7.93;;;;;;;24.31;41.71;101023.91;7300617;19;130744;-40
2023/01/25 09:32:13;;;;;;;20.50;5.32;;;;;;;24.46;41.15;101027.94;7304677;19;129733;-38
2023/01/25 09:34:39;;;;;;;32.80;6.10;;;;;;;24.50;40.88;101036.44;7308658;19;130669;-38
2023/01/25 09:37:04;;;;;;;45.00;6.78;;;;;;;24.52;41.37;101044.19;7307973;19;129899;-37
2023/01/25 09:39:29;;;;;;;26.70;5.97;;;;;;;24.66;40.95;101043.94;7306085;19;130373;-39
2023/01/25 09:42:10;;;;;;;32.67;5.73;;;;;;;24.70;40.50;101042.72;7308729;19;129181;-38
2023/01/25 09:44:57;;;;;;;40.63;6.80;;;;;;;24.63;40.36;101042.38;7306440;19;130006;-37
2023/01/25 09:47:35;;;;;;;47.13;7.83;;;;;;;24.41;41.41;101038.00;7308689;19;130073;-39
2023/01/25 09:50:34;;;;;;;42.83;7.35;;;;;;;24.27;40.91;101027.75;7307826;19;129825;-38
2023/01/25 09:53:31;;;;;;;58.03;7.90;;;;;;;24.12;41.79;101038.66;7306714;19;130213;-39
2023/01/25 09:56:02;;;;;;;48.72;7.25;;;;;;;24.14;41.51;101034.97;7306861;19;129256;-39
2023/01/25 09:58:34;;;;;;;49.58;8.00;;;;;;;24.26;41.73;101044.47;7302172;19;130482;-37
2023/01/25 10:01:19;;;;;;;65.45;9.30;;;;;;;24.21;41.15;101022.97;7305551;19;130767;-38
2023/01/25 10:03:59;;;;;;;35.95;6.70;;;;;;;24.43;41.17;101030.81;7307675;19;130254;-38
2023/01/25 10:06:35;;;;;;;44.75;7.88;;;;;;;24.42;40.55;101031.78;7303771;19;129529;-39
2023/01/25 10:09:18;;;;;;;47.75;7.05;;;;;;;24.50;40.81;101033.78;7308415;19;129732;-39
2023/01/25 10:11:44;;;;;;;48.90;7.60;;;;;;;24.62;40.58;101030.19;7307277;19;129358;-40
2023/01/25 10:14:14;;;;;;;43.73;7.83;;;;;;;24.84;40.21;101029.31;7304799;19;130193;-38
2023/01/25 10:16:45;;;;;;;33.80;6.20;;;;;;;24.83;39.74;101023.19;7302614;19;130378;-38
2023/01/25 10:19:21;;;;;;;23.27;4.97;;;;;;;24.94;39.24;101019.69;7308809;19;129072;-38
2023/01/25 10:21:54;;;;;;;33.92;6.32;;;;;;;24.93;38.97;101012.75;7307662;19;129141;-37
2023/01/25 10:24:51;;;;;;;24.50;5.57;;;;;;;24.84;39.39;101006.44;7307188;19;129610;-39
2023/01/25 10:27:16;;;;;;;23.27;5.55;;;;;;;24.67;40.12;101011.41;7305998;19;131045;-39
2023/01/25 10:29:42;;;;;;;26.63;5.80;;;;;;;24.45;40.28;101013.16;7306995;19;129506;-41
2023/01/25 10:32:23;;;;;;;50.37;7.00;;;;;;;24.31;40.78;101008.16;7306111;19;129561;-38
2023/01/25 10:34:50;;;;;;;72.50;9.50;;;;;;;24.34;41.03;101009.72;7302512;19;129500;-37
2023/01/25 10:37:19;;;;;;;32.58;6.05;;;;;;;24.24;41.06;100999.09;7306181;19;130490;-38
2023/01/25 10:40:17;;;;;;;22.10;5.53;;;;;;;24.21;41.23;100988.81;7306484;19;129695;-38
2023/01/25 10:43:04;;;;;;;25.60;5.68;;;;;;;24.34;40.78;100989.53;7303817;19;129058;-39
2023/01/25 10:45:30;;;;;;;64.27;10.47;;;;;;;24.32;40.48;100970.41;7301715;19;131275;-39
2023/01/25 10:48:03;;;;;;;31.63;5.97;;;;;;;24.35;41.06;100978.03;7307010;19;130143;-40
2023/01/25 10:50:39;;;;;;;49.70;7.82;;;;;;;24.37;41.12;100967.41;7295490;19;130283;-39
2023/01/25 10:53:19;;;;;;;53.65;8.15;;;;;;;24.48;40.32;100969.16;7296271;19;130669;-38
2023/01/25 10:55:59;;;;;;;35.08;6.43;;;;;;;24.59;40.50;100961.22;7301055;19;129341;-38
2023/01/25 10:58:28;;;;;;;53.90;8.35;;;;;;;24.64;40.35;100959.06;7300840;19;129997;-38
2023/01/25 11:00:54;;;;;;;37.85;7.03;;;;;;;24.60;40.38;100945.31;7301706;19;130281;-38
2023/01/25 11:03:21;;;;;;;75.80;10.63;;;;;;;24.66;40.94;100925.56;7296379;19;130913;-39
2023/01/25 11:05:54;;;;;;;35.38;6.13;;;;;;;24.77;40.74;100936.91;7296128;19;130160;-37
2023/01/25 11:08:24;;;;;;;42.22;6.60;;;;;;;24.84;40.92;100938.03;7307264;19;129584;-36
2023/01/25 11:10:50;;;;;;;22.95;5.15;;;;;;;24.85;40.32;100933.63;7307010;19;129463;-40
2023/01/25 11:13:15;;;;;;;13.47;5.33;;;;;;;24.81;41.02;100940.13;7303625;19;129767;-37
2023/01/25 11:15:54;;;;;;;10.67;4.13;;;;;;;24.43;41.88;100915.16;7304981;19;130372;-38